sensor_id;sensor_type;location;lat;lon;timestamp;P1;durP1;ratioP1;P2;durP2;ratioP2
69240;SDS011;56352;55.750;13.198;2023-02-11T00:00:37;21.40;;;5.00;;
69240;SDS011;56352;55.750;13.198;2023-02-11T00:03:05;13.48;;;4.32;;
69240;SDS011;56352;55.750;13.198;2023-02-11T00:05:32;12.25;;;4.57;;
69240;SDS011;56352;55.750;13.198;2023-02-11T00:07:59;18.77;;;5.28;;
69240;SDS011;56352;55.750;13.198;2023-02-11T00:10:25;15.57;;;4.80;;
69240;SDS011;56352;55.750;13.198;2023-02-11T00:12:52;12.95;;;4.93;;
69240;SDS011;56352;55.750;13.198;2023-02-11T00:15:18;13.88;;;4.20;;
69240;SDS011;56352;55.750;13.198;2023-02-11T00:17:46;14.82;;;4.40;;
69240;SDS011;56352;55.750;13.198;2023-02-11T00:20:12;19.85;;;4.75;;
69240;SDS011;56352;55.750;13.198;2023-02-11T00:22:39;16.10;;;5.35;;
69240;SDS011;56352;55.750;13.198;2023-02-11T00:25:06;15.02;;;5.03;;
69240;SDS011;56352;55.750;13.198;2023-02-11T00:27:33;22.27;;;7.47;;
69240;SDS011;56352;55.750;13.198;2023-02-11T00:29:59;13.93;;;4.88;;
69240;SDS011;56352;55.750;13.198;2023-02-11T00:32:27;14.48;;;4.57;;
69240;SDS011;56352;55.750;13.198;2023-02-11T00:34:54;22.08;;;5.55;;
69240;SDS011;56352;55.750;13.198;2023-02-11T00:37:21;16.10;;;4.95;;
69240;SDS011;56352;55.750;13.198;2023-02-11T00:39:47;14.40;;;5.15;;
69240;SDS011;56352;55.750;13.198;2023-02-11T00:42:15;13.02;;;4.88;;
69240;SDS011;56352;55.750;13.198;2023-02-11T00:44:42;18.58;;;4.95;;
69240;SDS011;56352;55.750;13.198;2023-02-11T00:47:08;16.70;;;4.47;;
69240;SDS011;56352;55.750;13.198;2023-02-11T00:49:35;19.90;;;4.88;;
69240;SDS011;56352;55.750;13.198;2023-02-11T00:52:02;16.42;;;4.93;;
69240;SDS011;56352;55.750;13.198;2023-02-11T00:54:28;20.27;;;5.13;;
69240;SDS011;56352;55.750;13.198;2023-02-11T00:56:55;18.02;;;5.15;;
69240;SDS011;56352;55.750;13.198;2023-02-11T00:59:22;21.15;;;5.05;;
69240;SDS011;56352;55.750;13.198;2023-02-11T01:01:48;22.13;;;5.38;;
69240;SDS011;56352;55.750;13.198;2023-02-11T01:04:15;14.48;;;4.13;;
69240;SDS011;56352;55.750;13.198;2023-02-11T01:06:41;17.00;;;5.10;;
69240;SDS011;56352;55.750;13.198;2023-02-11T01:09:08;18.77;;;4.35;;
69240;SDS011;56352;55.750;13.198;2023-02-11T01:11:35;16.60;;;4.28;;
69240;SDS011;56352;55.750;13.198;2023-02-11T01:14:01;20.67;;;4.40;;
69240;SDS011;56352;55.750;13.198;2023-02-11T01:16:28;19.33;;;4.47;;
69240;SDS011;56352;55.750;13.198;2023-02-11T01:18:54;17.88;;;4.53;;
69240;SDS011;56352;55.750;13.198;2023-02-11T01:21:21;25.42;;;4.65;;
69240;SDS011;56352;55.750;13.198;2023-02-11T01:23:47;25.05;;;4.70;;
69240;SDS011;56352;55.750;13.198;2023-02-11T01:26:14;20.27;;;4.43;;
69240;SDS011;56352;55.750;13.198;2023-02-11T01:28:41;22.15;;;4.97;;
69240;SDS011;56352;55.750;13.198;2023-02-11T01:31:07;18.77;;;4.28;;
69240;SDS011;56352;55.750;13.198;2023-02-11T01:33:34;15.50;;;3.25;;
69240;SDS011;56352;55.750;13.198;2023-02-11T01:36:02;12.15;;;4.38;;
69240;SDS011;56352;55.750;13.198;2023-02-11T01:38:30;20.40;;;3.67;;
69240;SDS011;56352;55.750;13.198;2023-02-11T01:41:01;15.82;;;4.13;;
69240;SDS011;56352;55.750;13.198;2023-02-11T01:43:30;17.90;;;4.10;;
69240;SDS011;56352;55.750;13.198;2023-02-11T01:46:00;18.38;;;3.65;;
69240;SDS011;56352;55.750;13.198;2023-02-11T01:51:06;15.07;;;3.60;;
69240;SDS011;56352;55.750;13.198;2023-02-11T01:53:34;17.10;;;3.40;;
69240;SDS011;56352;55.750;13.198;2023-02-11T01:56:21;19.65;;;3.38;;
69240;SDS011;56352;55.750;13.198;2023-02-11T01:59:08;13.57;;;3.45;;
69240;SDS011;56352;55.750;13.198;2023-02-11T02:01:38;20.98;;;3.33;;
69240;SDS011;56352;55.750;13.198;2023-02-11T02:04:06;18.23;;;3.45;;
69240;SDS011;56352;55.750;13.198;2023-02-11T02:09:21;17.88;;;3.90;;
69240;SDS011;56352;55.750;13.198;2023-02-11T02:11:49;15.90;;;3.13;;
69240;SDS011;56352;55.750;13.198;2023-02-11T02:14:16;14.43;;;3.53;;
69240;SDS011;56352;55.750;13.198;2023-02-11T02:16:43;12.48;;;4.03;;
69240;SDS011;56352;55.750;13.198;2023-02-11T02:30:44;16.55;;;3.25;;
69240;SDS011;56352;55.750;13.198;2023-02-11T02:38:34;21.02;;;4.65;;
69240;SDS011;56352;55.750;13.198;2023-02-11T02:41:34;14.32;;;2.85;;
69240;SDS011;56352;55.750;13.198;2023-02-11T02:44:01;17.73;;;4.30;;
69240;SDS011;56352;55.750;13.198;2023-02-11T02:46:29;15.05;;;2.85;;
69240;SDS011;56352;55.750;13.198;2023-02-11T02:48:57;18.50;;;3.13;;
69240;SDS011;56352;55.750;13.198;2023-02-11T02:51:32;16.60;;;2.78;;
69240;SDS011;56352;55.750;13.198;2023-02-11T03:02:34;19.80;;;2.90;;
69240;SDS011;56352;55.750;13.198;2023-02-11T03:05:11;9.38;;;2.45;;
69240;SDS011;56352;55.750;13.198;2023-02-11T03:08:03;14.43;;;2.83;;
69240;SDS011;56352;55.750;13.198;2023-02-11T03:10:44;13.35;;;2.35;;
69240;SDS011;56352;55.750;13.198;2023-02-11T03:13:13;19.38;;;3.30;;
69240;SDS011;56352;55.750;13.198;2023-02-11T03:15:43;13.77;;;2.63;;
69240;SDS011;56352;55.750;13.198;2023-02-11T03:18:12;12.82;;;2.50;;
69240;SDS011;56352;55.750;13.198;2023-02-11T03:20:41;9.23;;;2.08;;
69240;SDS011;56352;55.750;13.198;2023-02-11T03:23:24;13.27;;;2.40;;
69240;SDS011;56352;55.750;13.198;2023-02-11T03:26:00;14.13;;;2.20;;
69240;SDS011;56352;55.750;13.198;2023-02-11T03:28:48;13.73;;;2.08;;
69240;SDS011;56352;55.750;13.198;2023-02-11T03:31:27;11.85;;;2.78;;
69240;SDS011;56352;55.750;13.198;2023-02-11T03:37:12;18.60;;;2.75;;
69240;SDS011;56352;55.750;13.198;2023-02-11T03:39:26;17.60;;;2.72;;
69240;SDS011;56352;55.750;13.198;2023-02-11T03:41:54;10.68;;;2.50;;
69240;SDS011;56352;55.750;13.198;2023-02-11T03:44:21;11.13;;;2.33;;
69240;SDS011;56352;55.750;13.198;2023-02-11T03:46:50;14.15;;;2.47;;
69240;SDS011;56352;55.750;13.198;2023-02-11T03:49:18;10.85;;;2.03;;
69240;SDS011;56352;55.750;13.198;2023-02-11T03:51:47;14.80;;;2.85;;
69240;SDS011;56352;55.750;13.198;2023-02-11T03:54:17;10.68;;;2.25;;
69240;SDS011;56352;55.750;13.198;2023-02-11T03:56:50;13.15;;;2.75;;
69240;SDS011;56352;55.750;13.198;2023-02-11T03:59:18;17.95;;;3.20;;
69240;SDS011;56352;55.750;13.198;2023-02-11T04:01:45;11.70;;;2.45;;
69240;SDS011;56352;55.750;13.198;2023-02-11T04:04:11;14.10;;;2.70;;
69240;SDS011;56352;55.750;13.198;2023-02-11T04:06:38;13.98;;;2.33;;
69240;SDS011;56352;55.750;13.198;2023-02-11T04:09:05;14.55;;;2.70;;
69240;SDS011;56352;55.750;13.198;2023-02-11T04:11:32;11.38;;;2.30;;
69240;SDS011;56352;55.750;13.198;2023-02-11T04:13:58;11.50;;;2.10;;
69240;SDS011;56352;55.750;13.198;2023-02-11T04:16:25;10.45;;;2.47;;
69240;SDS011;56352;55.750;13.198;2023-02-11T04:18:52;13.73;;;2.33;;
69240;SDS011;56352;55.750;13.198;2023-02-11T04:21:18;12.07;;;3.28;;
69240;SDS011;56352;55.750;13.198;2023-02-11T04:23:45;16.25;;;2.70;;
69240;SDS011;56352;55.750;13.198;2023-02-11T04:26:11;24.02;;;3.25;;
69240;SDS011;56352;55.750;13.198;2023-02-11T04:28:38;10.07;;;2.30;;
69240;SDS011;56352;55.750;13.198;2023-02-11T04:31:05;16.92;;;3.03;;
69240;SDS011;56352;55.750;13.198;2023-02-11T04:33:31;16.02;;;2.35;;
69240;SDS011;56352;55.750;13.198;2023-02-11T04:35:58;15.52;;;2.83;;
69240;SDS011;56352;55.750;13.198;2023-02-11T04:38:24;9.38;;;2.55;;
69240;SDS011;56352;55.750;13.198;2023-02-11T04:40:51;12.05;;;2.83;;
69240;SDS011;56352;55.750;13.198;2023-02-11T04:43:18;17.52;;;3.05;;
69240;SDS011;56352;55.750;13.198;2023-02-11T04:45:44;11.95;;;2.53;;
69240;SDS011;56352;55.750;13.198;2023-02-11T04:48:11;8.32;;;1.88;;
69240;SDS011;56352;55.750;13.198;2023-02-11T04:50:37;11.63;;;2.00;;
69240;SDS011;56352;55.750;13.198;2023-02-11T04:53:04;11.30;;;2.60;;
69240;SDS011;56352;55.750;13.198;2023-02-11T04:55:30;10.88;;;2.53;;
69240;SDS011;56352;55.750;13.198;2023-02-11T04:57:57;12.05;;;1.73;;
69240;SDS011;56352;55.750;13.198;2023-02-11T05:00:23;10.05;;;2.88;;
69240;SDS011;56352;55.750;13.198;2023-02-11T05:02:50;9.68;;;1.80;;
69240;SDS011;56352;55.750;13.198;2023-02-11T05:05:16;11.05;;;2.30;;
69240;SDS011;56352;55.750;13.198;2023-02-11T05:07:43;10.38;;;2.22;;
69240;SDS011;56352;55.750;13.198;2023-02-11T05:10:10;14.25;;;1.70;;
69240;SDS011;56352;55.750;13.198;2023-02-11T05:12:36;8.85;;;1.83;;
69240;SDS011;56352;55.750;13.198;2023-02-11T05:15:03;10.98;;;1.90;;
69240;SDS011;56352;55.750;13.198;2023-02-11T05:17:30;10.95;;;2.30;;
69240;SDS011;56352;55.750;13.198;2023-02-11T05:19:57;6.30;;;1.75;;
69240;SDS011;56352;55.750;13.198;2023-02-11T05:22:23;16.33;;;2.05;;
69240;SDS011;56352;55.750;13.198;2023-02-11T05:24:50;11.20;;;1.70;;
69240;SDS011;56352;55.750;13.198;2023-02-11T05:27:16;8.45;;;1.60;;
69240;SDS011;56352;55.750;13.198;2023-02-11T05:29:43;14.10;;;2.13;;
69240;SDS011;56352;55.750;13.198;2023-02-11T05:32:09;11.40;;;2.15;;
69240;SDS011;56352;55.750;13.198;2023-02-11T05:34:37;8.25;;;1.90;;
69240;SDS011;56352;55.750;13.198;2023-02-11T05:37:03;7.70;;;1.80;;
69240;SDS011;56352;55.750;13.198;2023-02-11T05:39:30;9.10;;;2.28;;
69240;SDS011;56352;55.750;13.198;2023-02-11T05:41:57;13.85;;;2.67;;
69240;SDS011;56352;55.750;13.198;2023-02-11T05:44:23;11.00;;;1.85;;
69240;SDS011;56352;55.750;13.198;2023-02-11T05:46:50;10.10;;;1.85;;
69240;SDS011;56352;55.750;13.198;2023-02-11T05:49:16;7.57;;;1.90;;
69240;SDS011;56352;55.750;13.198;2023-02-11T05:51:43;8.18;;;1.65;;
69240;SDS011;56352;55.750;13.198;2023-02-11T05:54:10;12.60;;;2.08;;
69240;SDS011;56352;55.750;13.198;2023-02-11T05:56:36;14.13;;;1.73;;
69240;SDS011;56352;55.750;13.198;2023-02-11T05:59:03;9.57;;;2.00;;
69240;SDS011;56352;55.750;13.198;2023-02-11T06:01:29;9.25;;;1.70;;
69240;SDS011;56352;55.750;13.198;2023-02-11T06:03:56;11.15;;;2.00;;
69240;SDS011;56352;55.750;13.198;2023-02-11T06:06:23;8.40;;;1.60;;
69240;SDS011;56352;55.750;13.198;2023-02-11T06:08:50;7.45;;;1.58;;
69240;SDS011;56352;55.750;13.198;2023-02-11T06:11:17;10.10;;;2.03;;
69240;SDS011;56352;55.750;13.198;2023-02-11T06:13:43;6.55;;;1.88;;
69240;SDS011;56352;55.750;13.198;2023-02-11T06:16:10;8.52;;;2.70;;
69240;SDS011;56352;55.750;13.198;2023-02-11T06:18:37;8.85;;;1.70;;
69240;SDS011;56352;55.750;13.198;2023-02-11T06:21:08;10.15;;;1.83;;
69240;SDS011;56352;55.750;13.198;2023-02-11T06:23:35;10.05;;;1.98;;
69240;SDS011;56352;55.750;13.198;2023-02-11T06:26:03;6.93;;;2.05;;
69240;SDS011;56352;55.750;13.198;2023-02-11T06:28:30;8.50;;;1.23;;
69240;SDS011;56352;55.750;13.198;2023-02-11T06:30:58;13.27;;;1.88;;
69240;SDS011;56352;55.750;13.198;2023-02-11T06:33:29;12.52;;;2.38;;
69240;SDS011;56352;55.750;13.198;2023-02-11T06:35:56;5.90;;;1.48;;
69240;SDS011;56352;55.750;13.198;2023-02-11T06:38:22;4.20;;;1.58;;
69240;SDS011;56352;55.750;13.198;2023-02-11T06:40:49;9.57;;;1.85;;
69240;SDS011;56352;55.750;13.198;2023-02-11T06:43:15;12.52;;;1.58;;
69240;SDS011;56352;55.750;13.198;2023-02-11T06:45:42;9.55;;;2.10;;
69240;SDS011;56352;55.750;13.198;2023-02-11T06:48:09;10.65;;;2.03;;
69240;SDS011;56352;55.750;13.198;2023-02-11T06:50:35;8.80;;;1.67;;
69240;SDS011;56352;55.750;13.198;2023-02-11T06:53:02;8.30;;;1.50;;
69240;SDS011;56352;55.750;13.198;2023-02-11T06:55:29;13.32;;;2.05;;
69240;SDS011;56352;55.750;13.198;2023-02-11T06:57:55;12.18;;;1.65;;
69240;SDS011;56352;55.750;13.198;2023-02-11T07:00:22;10.38;;;1.60;;
69240;SDS011;56352;55.750;13.198;2023-02-11T07:02:48;11.73;;;1.73;;
69240;SDS011;56352;55.750;13.198;2023-02-11T07:05:15;10.35;;;1.80;;
69240;SDS011;56352;55.750;13.198;2023-02-11T07:07:42;8.18;;;2.10;;
69240;SDS011;56352;55.750;13.198;2023-02-11T07:10:08;10.13;;;2.33;;
69240;SDS011;56352;55.750;13.198;2023-02-11T07:12:35;15.02;;;3.03;;
69240;SDS011;56352;55.750;13.198;2023-02-11T07:15:01;8.77;;;1.70;;
69240;SDS011;56352;55.750;13.198;2023-02-11T07:17:28;9.20;;;2.10;;
69240;SDS011;56352;55.750;13.198;2023-02-11T07:19:55;7.75;;;1.05;;
69240;SDS011;56352;55.750;13.198;2023-02-11T07:22:21;11.40;;;1.45;;
69240;SDS011;56352;55.750;13.198;2023-02-11T07:24:48;7.00;;;1.30;;
69240;SDS011;56352;55.750;13.198;2023-02-11T07:27:14;5.60;;;1.40;;
69240;SDS011;56352;55.750;13.198;2023-02-11T07:29:41;9.80;;;1.73;;
69240;SDS011;56352;55.750;13.198;2023-02-11T07:32:10;11.07;;;1.95;;
69240;SDS011;56352;55.750;13.198;2023-02-11T07:34:44;8.13;;;1.50;;
69240;SDS011;56352;55.750;13.198;2023-02-11T07:37:15;6.85;;;1.33;;
69240;SDS011;56352;55.750;13.198;2023-02-11T07:39:43;7.13;;;1.50;;
69240;SDS011;56352;55.750;13.198;2023-02-11T07:42:10;7.28;;;1.42;;
69240;SDS011;56352;55.750;13.198;2023-02-11T07:44:36;6.00;;;1.55;;
69240;SDS011;56352;55.750;13.198;2023-02-11T07:47:03;11.02;;;2.00;;
69240;SDS011;56352;55.750;13.198;2023-02-11T07:49:30;8.32;;;1.45;;
69240;SDS011;56352;55.750;13.198;2023-02-11T07:51:56;10.27;;;1.40;;
69240;SDS011;56352;55.750;13.198;2023-02-11T07:54:23;8.30;;;1.38;;
69240;SDS011;56352;55.750;13.198;2023-02-11T07:56:49;6.22;;;1.45;;
69240;SDS011;56352;55.750;13.198;2023-02-11T07:59:16;16.20;;;2.40;;
69240;SDS011;56352;55.750;13.198;2023-02-11T08:01:43;14.52;;;2.22;;
69240;SDS011;56352;55.750;13.198;2023-02-11T08:04:10;7.85;;;1.42;;
69240;SDS011;56352;55.750;13.198;2023-02-11T08:06:39;9.88;;;1.92;;
69240;SDS011;56352;55.750;13.198;2023-02-11T08:09:07;9.35;;;1.73;;
69240;SDS011;56352;55.750;13.198;2023-02-11T08:11:36;11.07;;;2.20;;
69240;SDS011;56352;55.750;13.198;2023-02-11T08:14:02;9.07;;;1.77;;
69240;SDS011;56352;55.750;13.198;2023-02-11T08:16:32;9.75;;;1.88;;
69240;SDS011;56352;55.750;13.198;2023-02-11T08:19:01;10.00;;;1.80;;
69240;SDS011;56352;55.750;13.198;2023-02-11T08:21:29;6.00;;;1.55;;
69240;SDS011;56352;55.750;13.198;2023-02-11T08:23:56;10.40;;;2.20;;
69240;SDS011;56352;55.750;13.198;2023-02-11T08:26:23;4.65;;;1.52;;
69240;SDS011;56352;55.750;13.198;2023-02-11T08:28:53;6.78;;;1.60;;
69240;SDS011;56352;55.750;13.198;2023-02-11T08:31:24;9.75;;;1.42;;
69240;SDS011;56352;55.750;13.198;2023-02-11T08:33:53;8.13;;;1.60;;
69240;SDS011;56352;55.750;13.198;2023-02-11T08:36:24;14.73;;;2.53;;
69240;SDS011;56352;55.750;13.198;2023-02-11T08:38:53;6.57;;;1.35;;
69240;SDS011;56352;55.750;13.198;2023-02-11T08:41:37;10.73;;;1.85;;
69240;SDS011;56352;55.750;13.198;2023-02-11T08:44:04;11.13;;;1.90;;
69240;SDS011;56352;55.750;13.198;2023-02-11T08:46:30;9.70;;;1.90;;
69240;SDS011;56352;55.750;13.198;2023-02-11T08:48:57;8.75;;;1.52;;
69240;SDS011;56352;55.750;13.198;2023-02-11T08:51:24;9.40;;;2.08;;
69240;SDS011;56352;55.750;13.198;2023-02-11T08:53:53;10.07;;;2.00;;
69240;SDS011;56352;55.750;13.198;2023-02-11T08:56:20;8.30;;;1.77;;
69240;SDS011;56352;55.750;13.198;2023-02-11T08:58:48;12.15;;;2.03;;
69240;SDS011;56352;55.750;13.198;2023-02-11T09:01:16;7.93;;;1.80;;
69240;SDS011;56352;55.750;13.198;2023-02-11T09:03:47;8.40;;;1.50;;
69240;SDS011;56352;55.750;13.198;2023-02-11T09:06:14;7.70;;;1.67;;
69240;SDS011;56352;55.750;13.198;2023-02-11T09:08:43;9.73;;;1.75;;
69240;SDS011;56352;55.750;13.198;2023-02-11T09:11:12;10.00;;;1.92;;
69240;SDS011;56352;55.750;13.198;2023-02-11T09:13:39;8.60;;;1.80;;
69240;SDS011;56352;55.750;13.198;2023-02-11T09:16:07;11.13;;;2.47;;
69240;SDS011;56352;55.750;13.198;2023-02-11T09:18:33;13.13;;;2.35;;
69240;SDS011;56352;55.750;13.198;2023-02-11T09:21:04;14.93;;;2.47;;
69240;SDS011;56352;55.750;13.198;2023-02-11T09:23:32;11.60;;;2.00;;
69240;SDS011;56352;55.750;13.198;2023-02-11T09:28:34;15.05;;;2.15;;
69240;SDS011;56352;55.750;13.198;2023-02-11T09:31:20;13.63;;;2.35;;
69240;SDS011;56352;55.750;13.198;2023-02-11T09:33:50;8.55;;;1.70;;
69240;SDS011;56352;55.750;13.198;2023-02-11T09:36:23;11.50;;;3.03;;
69240;SDS011;56352;55.750;13.198;2023-02-11T09:38:51;15.02;;;2.05;;
69240;SDS011;56352;55.750;13.198;2023-02-11T09:41:23;13.13;;;2.60;;
69240;SDS011;56352;55.750;13.198;2023-02-11T09:44:07;17.80;;;3.35;;
69240;SDS011;56352;55.750;13.198;2023-02-11T09:46:36;14.55;;;2.88;;
69240;SDS011;56352;55.750;13.198;2023-02-11T09:49:06;12.40;;;2.30;;
69240;SDS011;56352;55.750;13.198;2023-02-11T09:51:41;12.45;;;2.80;;
69240;SDS011;56352;55.750;13.198;2023-02-11T09:54:11;11.15;;;2.60;;
69240;SDS011;56352;55.750;13.198;2023-02-11T09:56:39;16.67;;;2.30;;
69240;SDS011;56352;55.750;13.198;2023-02-11T09:59:08;14.95;;;3.15;;
69240;SDS011;56352;55.750;13.198;2023-02-11T10:06:40;12.32;;;3.08;;
69240;SDS011;56352;55.750;13.198;2023-02-11T10:22:57;17.98;;;2.92;;
69240;SDS011;56352;55.750;13.198;2023-02-11T10:25:33;15.73;;;3.17;;
69240;SDS011;56352;55.750;13.198;2023-02-11T10:28:00;18.20;;;3.30;;
69240;SDS011;56352;55.750;13.198;2023-02-11T10:30:39;13.30;;;2.75;;
69240;SDS011;56352;55.750;13.198;2023-02-11T10:33:21;17.60;;;3.78;;
69240;SDS011;56352;55.750;13.198;2023-02-11T10:36:03;13.00;;;2.95;;
69240;SDS011;56352;55.750;13.198;2023-02-11T10:38:30;20.73;;;3.63;;
69240;SDS011;56352;55.750;13.198;2023-02-11T10:41:02;15.05;;;3.00;;
69240;SDS011;56352;55.750;13.198;2023-02-11T10:43:29;20.08;;;3.38;;
69240;SDS011;56352;55.750;13.198;2023-02-11T10:45:56;15.35;;;3.28;;
69240;SDS011;56352;55.750;13.198;2023-02-11T10:51:15;12.80;;;2.45;;
69240;SDS011;56352;55.750;13.198;2023-02-11T10:53:43;11.57;;;2.85;;
69240;SDS011;56352;55.750;13.198;2023-02-11T10:56:33;14.88;;;3.25;;
69240;SDS011;56352;55.750;13.198;2023-02-11T10:59:46;21.27;;;3.47;;
69240;SDS011;56352;55.750;13.198;2023-02-11T11:02:18;18.58;;;2.97;;
69240;SDS011;56352;55.750;13.198;2023-02-11T11:04:48;20.77;;;4.68;;
69240;SDS011;56352;55.750;13.198;2023-02-11T11:07:19;16.25;;;2.83;;
69240;SDS011;56352;55.750;13.198;2023-02-11T11:09:51;21.33;;;3.80;;
69240;SDS011;56352;55.750;13.198;2023-02-11T11:12:27;19.05;;;4.68;;
69240;SDS011;56352;55.750;13.198;2023-02-11T11:14:54;11.82;;;3.10;;
69240;SDS011;56352;55.750;13.198;2023-02-11T11:17:25;18.33;;;3.47;;
69240;SDS011;56352;55.750;13.198;2023-02-11T11:20:41;15.73;;;3.55;;
69240;SDS011;56352;55.750;13.198;2023-02-11T11:22:45;20.75;;;3.17;;
69240;SDS011;56352;55.750;13.198;2023-02-11T11:25:19;20.15;;;3.25;;
69240;SDS011;56352;55.750;13.198;2023-02-11T11:27:50;16.50;;;3.55;;
69240;SDS011;56352;55.750;13.198;2023-02-11T11:30:18;17.02;;;3.63;;
69240;SDS011;56352;55.750;13.198;2023-02-11T11:32:45;18.60;;;3.63;;
69240;SDS011;56352;55.750;13.198;2023-02-11T11:35:30;18.25;;;3.60;;
69240;SDS011;56352;55.750;13.198;2023-02-11T11:38:01;19.10;;;3.17;;
69240;SDS011;56352;55.750;13.198;2023-02-11T11:43:15;14.32;;;3.22;;
69240;SDS011;56352;55.750;13.198;2023-02-11T11:45:51;17.27;;;3.47;;
69240;SDS011;56352;55.750;13.198;2023-02-11T11:51:09;18.02;;;3.03;;
69240;SDS011;56352;55.750;13.198;2023-02-11T11:56:23;18.60;;;3.28;;
69240;SDS011;56352;55.750;13.198;2023-02-11T11:58:51;14.35;;;3.20;;
69240;SDS011;56352;55.750;13.198;2023-02-11T12:07:18;17.38;;;3.22;;
69240;SDS011;56352;55.750;13.198;2023-02-11T12:13:05;22.88;;;3.72;;
69240;SDS011;56352;55.750;13.198;2023-02-11T12:18:35;18.27;;;3.35;;
69240;SDS011;56352;55.750;13.198;2023-02-11T12:21:24;21.27;;;3.60;;
69240;SDS011;56352;55.750;13.198;2023-02-11T12:29:36;20.65;;;3.90;;
69240;SDS011;56352;55.750;13.198;2023-02-11T12:32:24;22.85;;;4.80;;
69240;SDS011;56352;55.750;13.198;2023-02-11T12:35:05;20.52;;;4.32;;
69240;SDS011;56352;55.750;13.198;2023-02-11T12:37:51;24.63;;;5.30;;
69240;SDS011;56352;55.750;13.198;2023-02-11T12:51:46;17.90;;;4.70;;
69240;SDS011;56352;55.750;13.198;2023-02-11T12:54:19;22.98;;;4.13;;
69240;SDS011;56352;55.750;13.198;2023-02-11T12:57:02;18.42;;;4.00;;
69240;SDS011;56352;55.750;13.198;2023-02-11T13:05:26;23.90;;;5.88;;
69240;SDS011;56352;55.750;13.198;2023-02-11T13:08:15;19.27;;;4.03;;
69240;SDS011;56352;55.750;13.198;2023-02-11T13:11:11;21.88;;;4.78;;
69240;SDS011;56352;55.750;13.198;2023-02-11T13:16:39;23.53;;;4.73;;
69240;SDS011;56352;55.750;13.198;2023-02-11T13:27:00;24.17;;;5.80;;
69240;SDS011;56352;55.750;13.198;2023-02-11T13:29:38;25.80;;;4.65;;
69240;SDS011;56352;55.750;13.198;2023-02-11T13:32:21;26.15;;;5.70;;
69240;SDS011;56352;55.750;13.198;2023-02-11T13:40:19;24.63;;;4.47;;
69240;SDS011;56352;55.750;13.198;2023-02-11T13:42:49;20.60;;;5.15;;
69240;SDS011;56352;55.750;13.198;2023-02-11T13:48:21;21.13;;;4.68;;
69240;SDS011;56352;55.750;13.198;2023-02-11T13:50:52;24.40;;;4.78;;
69240;SDS011;56352;55.750;13.198;2023-02-11T13:53:19;25.02;;;4.88;;
69240;SDS011;56352;55.750;13.198;2023-02-11T13:55:48;23.95;;;4.57;;
69240;SDS011;56352;55.750;13.198;2023-02-11T13:58:18;26.40;;;4.60;;
69240;SDS011;56352;55.750;13.198;2023-02-11T14:00:53;24.23;;;4.85;;
69240;SDS011;56352;55.750;13.198;2023-02-11T14:03:28;21.67;;;4.65;;
69240;SDS011;56352;55.750;13.198;2023-02-11T14:06:16;31.73;;;4.85;;
69240;SDS011;56352;55.750;13.198;2023-02-11T14:14:19;30.45;;;6.18;;
69240;SDS011;56352;55.750;13.198;2023-02-11T14:22:10;22.23;;;4.85;;
69240;SDS011;56352;55.750;13.198;2023-02-11T14:24:46;28.20;;;4.93;;
69240;SDS011;56352;55.750;13.198;2023-02-11T14:35:35;24.15;;;5.10;;
69240;SDS011;56352;55.750;13.198;2023-02-11T14:41:04;18.55;;;4.53;;
69240;SDS011;56352;55.750;13.198;2023-02-11T14:43:40;29.92;;;5.78;;
69240;SDS011;56352;55.750;13.198;2023-02-11T14:46:10;27.83;;;5.35;;
69240;SDS011;56352;55.750;13.198;2023-02-11T14:48:38;27.73;;;5.35;;
69240;SDS011;56352;55.750;13.198;2023-02-11T14:51:09;29.92;;;4.65;;
69240;SDS011;56352;55.750;13.198;2023-02-11T14:53:39;24.23;;;4.32;;
69240;SDS011;56352;55.750;13.198;2023-02-11T14:56:23;24.67;;;4.88;;
69240;SDS011;56352;55.750;13.198;2023-02-11T14:58:52;24.40;;;4.97;;
69240;SDS011;56352;55.750;13.198;2023-02-11T15:01:27;24.48;;;4.68;;
69240;SDS011;56352;55.750;13.198;2023-02-11T15:04:01;26.88;;;4.60;;
69240;SDS011;56352;55.750;13.198;2023-02-11T15:06:33;24.50;;;5.15;;
69240;SDS011;56352;55.750;13.198;2023-02-11T15:09:04;27.15;;;4.30;;
69240;SDS011;56352;55.750;13.198;2023-02-11T15:11:37;24.45;;;4.38;;
69240;SDS011;56352;55.750;13.198;2023-02-11T15:14:06;29.35;;;4.72;;
69240;SDS011;56352;55.750;13.198;2023-02-11T15:16:38;22.35;;;4.30;;
69240;SDS011;56352;55.750;13.198;2023-02-11T15:19:06;34.60;;;5.55;;
69240;SDS011;56352;55.750;13.198;2023-02-11T15:21:45;28.75;;;5.22;;
69240;SDS011;56352;55.750;13.198;2023-02-11T15:26:55;23.45;;;4.72;;
69240;SDS011;56352;55.750;13.198;2023-02-11T15:29:25;26.98;;;4.65;;
69240;SDS011;56352;55.750;13.198;2023-02-11T15:34:51;25.75;;;5.03;;
69240;SDS011;56352;55.750;13.198;2023-02-11T15:37:26;23.27;;;4.80;;
69240;SDS011;56352;55.750;13.198;2023-02-11T15:39:54;19.80;;;3.85;;
69240;SDS011;56352;55.750;13.198;2023-02-11T15:42:37;29.55;;;5.05;;
69240;SDS011;56352;55.750;13.198;2023-02-11T15:50:40;30.92;;;4.93;;
69240;SDS011;56352;55.750;13.198;2023-02-11T15:56:02;28.83;;;4.93;;
69240;SDS011;56352;55.750;13.198;2023-02-11T15:58:36;27.58;;;4.80;;
69240;SDS011;56352;55.750;13.198;2023-02-11T16:01:04;24.13;;;4.85;;
69240;SDS011;56352;55.750;13.198;2023-02-11T16:03:31;25.10;;;4.68;;
69240;SDS011;56352;55.750;13.198;2023-02-11T16:06:14;24.70;;;5.32;;
69240;SDS011;56352;55.750;13.198;2023-02-11T16:08:55;23.52;;;4.75;;
69240;SDS011;56352;55.750;13.198;2023-02-11T16:11:26;25.83;;;4.57;;
69240;SDS011;56352;55.750;13.198;2023-02-11T16:16:47;23.83;;;4.65;;
69240;SDS011;56352;55.750;13.198;2023-02-11T16:19:19;19.42;;;4.32;;
69240;SDS011;56352;55.750;13.198;2023-02-11T16:21:50;33.15;;;4.72;;
69240;SDS011;56352;55.750;13.198;2023-02-11T16:24:18;22.63;;;4.15;;
69240;SDS011;56352;55.750;13.198;2023-02-11T16:26:56;28.55;;;5.32;;
69240;SDS011;56352;55.750;13.198;2023-02-11T16:31:53;25.42;;;4.22;;
69240;SDS011;56352;55.750;13.198;2023-02-11T16:34:29;25.40;;;4.40;;
69240;SDS011;56352;55.750;13.198;2023-02-11T16:36:56;27.63;;;3.60;;
69240;SDS011;56352;55.750;13.198;2023-02-11T16:39:23;20.67;;;3.75;;
69240;SDS011;56352;55.750;13.198;2023-02-11T16:41:50;18.45;;;4.70;;
69240;SDS011;56352;55.750;13.198;2023-02-11T16:44:17;36.00;;;4.80;;
69240;SDS011;56352;55.750;13.198;2023-02-11T16:46:44;22.80;;;5.03;;
69240;SDS011;56352;55.750;13.198;2023-02-11T16:49:19;26.02;;;4.63;;
69240;SDS011;56352;55.750;13.198;2023-02-11T16:51:49;20.23;;;3.53;;
69240;SDS011;56352;55.750;13.198;2023-02-11T16:54:16;21.80;;;4.50;;
69240;SDS011;56352;55.750;13.198;2023-02-11T16:56:43;19.13;;;3.88;;
69240;SDS011;56352;55.750;13.198;2023-02-11T16:59:11;25.70;;;4.82;;
69240;SDS011;56352;55.750;13.198;2023-02-11T17:01:38;23.77;;;3.65;;
69240;SDS011;56352;55.750;13.198;2023-02-11T17:04:05;24.67;;;4.07;;
69240;SDS011;56352;55.750;13.198;2023-02-11T17:06:33;22.23;;;3.55;;
69240;SDS011;56352;55.750;13.198;2023-02-11T17:09:00;22.05;;;4.40;;
69240;SDS011;56352;55.750;13.198;2023-02-11T17:11:27;23.52;;;4.45;;
69240;SDS011;56352;55.750;13.198;2023-02-11T17:13:53;19.85;;;4.07;;
69240;SDS011;56352;55.750;13.198;2023-02-11T17:16:21;30.23;;;5.50;;
69240;SDS011;56352;55.750;13.198;2023-02-11T17:18:50;21.95;;;5.07;;
69240;SDS011;56352;55.750;13.198;2023-02-11T17:21:16;32.05;;;5.03;;